»·PEaware :: DAL1233 KRNO-KSFO

DAL1233 :: KRNO-KSFO

FLIGHT INFORMATION

Flight Status: Arrived
Operator:
Delta Air Lines
More flights by this operator :: More flights under this callsign
Pilot: Kevin M. (7)
Aircraft: BOEING 737-800
(B738)
More flights by this aircraft type
Origin: KRNO Reno/Tahoe Intl
United States
Destination: KSFO San Francisco Intl
United States
More flights between these airports :: More routes between these airports
Route: ZEFFR6 MRLET LEGGS BDEGA3
File this flight plan on PilotEdge
Remarks:
Altitude:
(Current/Filed)
28,000ft
Speed:
(Current/Filed)
468kts
Departed: 16-Nov-20 10:07 AM
Arrived: 16-Nov-20 10:48 AM
Distance/Time
Traveled:
167nm/0:40
Distance/Time
To Go:
Arrived

Flight Plot

Page will automatically refresh every two minutes.

Flight plan parsing failed; only flown route is shown


Map Options




Map Legend


Flown Route
Filed Route
Departure Airport
Arrival Airport
Navaid (VOR, NDB)
Fix

Horizontal Profiles

Position Reports

Time Latitude Longitude Heading Altitude Ground
Speed
16-Nov-20 08:57 39.507247 -119.772182 263 4417ft 0kts
16-Nov-20 08:58 39.507247 -119.772182 263 4417ft 0kts
16-Nov-20 08:59 39.507247 -119.772182 263 4417ft 0kts
16-Nov-20 09:00 39.507247 -119.772182 263 4417ft 0kts
16-Nov-20 09:01 39.507247 -119.772181 263 4417ft 0kts
16-Nov-20 09:02 39.507247 -119.772179 263 4417ft 0kts
16-Nov-20 09:03 39.507156 -119.771496 345 4417ft 2kts
16-Nov-20 09:04 39.507039 -119.771489 0 4417ft 0kts
16-Nov-20 09:05 39.507039 -119.771489 0 4417ft 0kts
16-Nov-20 09:06 39.508926 -119.771488 359 4418ft 9kts
16-Nov-20 09:07 39.510438 -119.771491 359 4420ft 4kts
16-Nov-20 09:08 39.513932 -119.770921 92 4423ft 10kts
16-Nov-20 09:09 39.513036 -119.769239 176 4423ft 11kts
16-Nov-20 09:10 39.497975 -119.769264 179 4413ft 28kts
16-Nov-20 09:11 39.499385 -119.771289 284 4414ft 13kts
16-Nov-20 09:12 39.499860 -119.772643 359 4414ft 0kts
16-Nov-20 09:13 39.499860 -119.772643 359 4414ft 0kts
16-Nov-20 09:14 39.499860 -119.772643 359 4414ft 0kts
16-Nov-20 09:15 39.499860 -119.772643 359 4414ft 0kts
16-Nov-20 09:16 39.499860 -119.772643 359 4414ft 0kts
16-Nov-20 09:17 39.499860 -119.772643 359 4414ft 0kts
16-Nov-20 09:18 39.499860 -119.772643 359 4414ft 0kts
16-Nov-20 09:19 39.499860 -119.772643 359 4414ft 0kts
16-Nov-20 09:20 39.499860 -119.772643 359 4414ft 0kts
16-Nov-20 09:21 39.499860 -119.772643 359 4414ft 0kts
16-Nov-20 09:22 39.499860 -119.772643 359 4414ft 0kts
16-Nov-20 09:23 39.499860 -119.772643 359 4414ft 0kts
16-Nov-20 09:24 39.499860 -119.772643 359 4414ft 0kts
16-Nov-20 09:25 39.499860 -119.772643 359 4414ft 0kts
16-Nov-20 09:26 39.499860 -119.772643 359 4414ft 0kts
16-Nov-20 09:27 39.499860 -119.772643 359 4414ft 0kts
16-Nov-20 09:28 39.499860 -119.772643 359 4414ft 0kts
16-Nov-20 09:29 39.499860 -119.772643 359 4414ft 0kts
16-Nov-20 09:30 39.499860 -119.772643 359 4414ft 0kts
16-Nov-20 09:31 39.499860 -119.772643 359 4414ft 0kts
16-Nov-20 09:32 39.499860 -119.772643 359 4414ft 0kts
16-Nov-20 09:33 39.499860 -119.772643 359 4414ft 0kts
16-Nov-20 09:34 39.499860 -119.772643 359 4414ft 0kts
16-Nov-20 09:35 39.499860 -119.772643 359 4414ft 0kts
16-Nov-20 09:36 39.499860 -119.772643 359 4414ft 0kts
16-Nov-20 09:37 39.499860 -119.772643 359 4414ft 0kts
16-Nov-20 09:38 39.499860 -119.772643 359 4414ft 0kts
16-Nov-20 09:39 39.499860 -119.772643 359 4414ft 0kts
16-Nov-20 09:40 39.499860 -119.772643 359 4414ft 0kts
16-Nov-20 09:41 39.499860 -119.772643 359 4414ft 0kts
16-Nov-20 09:42 39.499860 -119.772643 359 4414ft 0kts
16-Nov-20 09:43 39.499860 -119.772643 359 4414ft 0kts
16-Nov-20 09:44 39.499860 -119.772643 359 4414ft 0kts
16-Nov-20 09:45 39.499860 -119.772643 359 4414ft 0kts
16-Nov-20 09:46 39.499860 -119.772643 359 4414ft 0kts
16-Nov-20 09:47 39.499860 -119.772643 359 4414ft 0kts
16-Nov-20 09:48 39.499860 -119.772643 359 4414ft 0kts
16-Nov-20 09:49 39.499860 -119.772643 359 4414ft 0kts
16-Nov-20 09:50 39.499860 -119.772643 359 4414ft 0kts
16-Nov-20 09:51 39.499860 -119.772643 359 4414ft 0kts
16-Nov-20 09:52 39.499860 -119.772643 359 4414ft 0kts
16-Nov-20 09:53 39.499860 -119.772643 359 4414ft 0kts
16-Nov-20 09:54 39.499860 -119.772643 359 4414ft 0kts
16-Nov-20 09:55 39.499860 -119.772643 359 4414ft 0kts
16-Nov-20 09:56 39.499860 -119.772643 359 4414ft 0kts
16-Nov-20 09:57 39.499860 -119.772643 359 4414ft 0kts
16-Nov-20 09:58 39.499860 -119.772643 359 4414ft 0kts
16-Nov-20 09:59 39.499860 -119.772643 359 4414ft 0kts
16-Nov-20 10:00 39.500182 -119.772550 43 4414ft 3kts
16-Nov-20 10:01 39.500973 -119.771500 358 4414ft 11kts
16-Nov-20 10:02 39.505718 -119.771490 0 4416ft 22kts
16-Nov-20 10:03 39.510673 -119.771425 0 4420ft 13kts
16-Nov-20 10:04 39.513426 -119.771445 7 4423ft 0kts
16-Nov-20 10:05 39.513802 -119.771268 33 4423ft 6kts
16-Nov-20 10:06 39.507989 -119.769229 180 4415ft 108kts
16-Nov-20 10:07 39.459577 -119.767923 179 6605ft 197kts
16-Nov-20 10:08 39.392339 -119.769675 182 8756ft 272kts
16-Nov-20 10:09 39.312093 -119.772897 192 11597ft 308kts
16-Nov-20 10:10 39.220253 -119.798588 195 13504ft 364kts
16-Nov-20 10:11 39.116640 -119.828414 196 15983ft 392kts
16-Nov-20 10:12 39.008660 -119.859572 196 18605ft 407kts
16-Nov-20 10:13 38.896041 -119.892048 195 20809ft 425kts
16-Nov-20 10:14 38.788835 -119.950870 228 22950ft 427kts
16-Nov-20 10:15 38.750386 -120.092798 254 25020ft 432kts
16-Nov-20 10:16 38.698577 -120.229295 243 27453ft 425kts
16-Nov-20 10:17 38.646144 -120.364486 244 28309ft 426kts
16-Nov-20 10:18 38.594557 -120.502380 244 28230ft 435kts
16-Nov-20 10:19 38.542810 -120.642550 245 28223ft 436kts
16-Nov-20 10:20 38.491260 -120.782506 244 28216ft 435kts
16-Nov-20 10:21 38.439691 -120.922678 244 28203ft 435kts
16-Nov-20 10:22 38.388381 -121.062152 244 28200ft 430kts
16-Nov-20 10:24 38.337923 -121.199255 244 28199ft 423kts
16-Nov-20 10:25 38.287881 -121.335124 244 28202ft 424kts
16-Nov-20 10:26 38.237862 -121.470839 244 28205ft 424kts
16-Nov-20 10:27 38.187647 -121.606998 244 28201ft 424kts
16-Nov-20 10:28 38.136667 -121.744945 244 27048ft 435kts
16-Nov-20 10:29 38.085214 -121.884127 244 25649ft 439kts
16-Nov-20 10:30 38.033138 -122.024965 244 24238ft 444kts
16-Nov-20 10:31 37.963180 -122.149119 215 22421ft 426kts
16-Nov-20 10:32 37.863862 -122.228242 213 20292ft 418kts
16-Nov-20 10:33 37.767101 -122.305044 213 17986ft 405kts
16-Nov-20 10:34 37.674589 -122.378355 208 15653ft 363kts
16-Nov-20 10:35 37.581860 -122.366670 163 13387ft 345kts
16-Nov-20 10:36 37.492894 -122.327126 163 11071ft 332kts
16-Nov-20 10:37 37.411915 -122.282256 131 9300ft 298kts
16-Nov-20 10:38 37.388553 -122.187441 103 8251ft 282kts
16-Nov-20 10:39 37.375640 -122.092125 74 6257ft 272kts
16-Nov-20 10:39 37.420946 -122.053122 346 5041ft 237kts
16-Nov-20 10:41 37.484654 -122.089659 330 5241ft 198kts
16-Nov-20 10:42 37.521098 -122.144256 298 3862ft 205kts
16-Nov-20 10:43 37.547464 -122.207205 296 3353ft 197kts
16-Nov-20 10:43 37.566649 -122.252587 299 2230ft 160kts
16-Nov-20 10:44 37.586860 -122.299798 299 946ft 146kts
16-Nov-20 10:46 37.609627 -122.353425 297 197ft 151kts
16-Nov-20 10:46 37.621331 -122.381239 300 36ft 43kts
16-Nov-20 10:47 37.619193 -122.381057 119 36ft 17kts
16-Nov-20 10:48 37.615986 -122.379991 207 36ft 8kts
16-Nov-20 10:49 37.615108 -122.381840 263 37ft 0kts
16-Nov-20 10:50 37.615108 -122.381840 263 37ft 0kts
16-Nov-20 10:51 37.615108 -122.381840 263 37ft 0kts
16-Nov-20 10:52 37.615108 -122.381840 263 37ft 0kts
16-Nov-20 10:53 37.615108 -122.381840 263 37ft 0kts
16-Nov-20 10:54 37.615108 -122.381840 263 37ft 0kts
16-Nov-20 10:55 37.615108 -122.381840 263 37ft 0kts
16-Nov-20 10:56 37.615108 -122.381840 263 37ft 0kts
16-Nov-20 10:57 37.615108 -122.381840 263 37ft 0kts
16-Nov-20 10:58 37.615108 -122.381840 263 37ft 0kts
16-Nov-20 10:59 37.615108 -122.381840 263 37ft 0kts
16-Nov-20 11:00 37.615108 -122.381840 263 37ft 0kts
16-Nov-20 11:01 37.615108 -122.381840 263 37ft 0kts

Navigation Log

Ident Type
Flight plan parsing failed, navigation log unavailable